EST,Max TemperatureF,Mean TemperatureF,Min TemperatureF,Max Dew PointF,MeanDew PointF,Min DewpointF,Max Humidity, Mean Humidity, Min Humidity, Max Sea Level PressureIn, Mean Sea Level PressureIn, Min Sea Level PressureIn, Max VisibilityMiles, Mean VisibilityMiles, Min VisibilityMiles, Max Wind SpeedMPH, Mean Wind SpeedMPH, Max Gust SpeedMPH,PrecipitationIn, CloudCover, Events, WindDirDegrees
2013-1-1,43,38,34,44,38,23,100,92,54,30.09,30.00,29.91,10,5,0,18,11,32,0.24,8,Fog-Rain,251
2013-1-2,41,37,33,41,33,30,100,93,82,30.14,30.06,29.95,10,9,2,12,4,,0.06,8,Rain-Snow,292
2013-1-3,39,35,31,34,27,17,100,78,42,30.23,30.16,30.11,10,9,2,14,3,20,0.00,4,,267
2013-1-4,37,31,25,23,21,20,81,65,53,30.30,30.26,30.21,10,10,10,23,17,37,0.00,2,,271
2013-1-5,47,36,25,32,23,18,88,65,32,30.37,30.28,30.20,10,10,7,22,10,25,0.00,2,Rain,254
2013-1-6,38,36,34,37,35,30,100,94,72,30.21,30.13,30.07,10,7,0,20,13,28,0.01,8,Fog-Snow,258
2013-1-7,48,39,30,29,25,21,79,64,36,30.40,30.32,30.21,10,10,10,16,9,21,0.00,3,,9
2013-1-8,54,40,26,29,24,14,99,62,22,30.41,30.35,30.32,10,10,7,9,4,16,0.00,0,,113
2013-1-9,53,42,32,52,41,28,100,91,65,30.50,30.42,30.36,10,8,0,10,4,,0.04,5,Fog-Rain,250
2013-1-10,62,51,40,50,42,30,100,74,43,30.54,30.47,30.36,10,8,0,18,5,23,0.00,4,Fog,64
2013-1-11,56,50,44,57,48,33,100,94,51,30.36,30.23,30.14,10,7,0,17,9,23,0.12,8,Fog-Rain,57
2013-1-12,70,63,56,64,59,55,100,93,74,30.21,30.15,30.10,10,7,0,15,6,20,0.05,5,Fog-Rain,249
2013-1-13,73,62,52,56,53,51,98,73,47,30.14,30.08,30.03,10,10,10,12,2,18,0.00,2,Rain,209
2013-1-14,58,50,42,59,51,42,100,100,96,30.25,30.17,30.09,10,8,0,12,4,17,1.04,8,Rain,311
2013-1-15,45,43,41,46,44,42,100,100,100,30.21,30.13,30.02,10,8,3,13,6,16,1.88,8,Rain,74
2013-1-16,58,50,41,55,48,42,100,98,81,30.06,30.00,29.94,10,9,2,14,7,22,0.47,8,Rain,261
2013-1-17,46,40,33,46,38,30,100,96,82,30.18,30.04,29.96,10,6,0,9,5,16,0.73,8,Rain-Snow,335
2013-1-18,35,27,18,30,25,18,100,84,65,30.47,30.39,30.22,10,9,0,20,11,26,0.13,4,Fog,254
2013-1-19,43,28,13,34,22,12,100,80,42,30.41,30.28,30.12,10,7,0,16,3,18,0.37,2,Fog,252
2013-1-20,44,38,32,32,30,27,88,72,61,30.11,30.08,30.05,10,10,10,22,15,32,0.16,0,,249
2013-1-21,40,33,26,32,21,6,100,64,35,30.07,29.99,29.91,10,10,4,31,11,41,0.00,0,,259
2013-1-22,25,20,16,6,-2,-6,48,37,26,30.15,30.08,29.97,10,10,10,30,21,41,0.00,0,,287
2013-1-23,33,24,16,22,10,-1,69,53,43,30.22,30.13,29.99,10,10,10,23,16,30,0.00,4,,264
2013-1-24,35,25,15,26,10,-2,70,55,32,30.40,30.20,29.95,10,10,7,29,16,44,0.00,4,Snow,290
2013-1-25,32,24,17,33,18,4,100,82,47,30.36,30.13,29.99,10,5,0,32,11,37,0.01,6,Fog-Snow,55
2013-1-26,35,32,28,33,27,24,100,83,74,30.34,30.16,30.01,10,10,1,28,17,39,0.01,7,,275
2013-1-27,38,32,25,29,25,22,100,77,60,30.45,30.39,30.34,10,10,7,12,5,,0.09,6,Rain,61
2013-1-28,59,46,33,49,39,30,100,80,54,30.36,30.28,30.20,10,8,4,21,7,28,0.21,6,Rain,256
2013-1-29,68,56,45,53,49,46,100,80,47,30.24,30.16,30.02,10,7,0,16,7,22,0.01,4,Fog-Rain,257
2013-1-30,69,56,44,60,54,44,100,84,64,30.01,29.70,29.47,10,9,2,24,9,47,1.57,8,Rain-Thunderstorm,209
2013-1-31,45,38,30,44,24,17,100,69,55,29.91,29.77,29.48,10,9,4,33,22,45,0.02,8,Rain-Snow,269